sensor_id;sensor_type;location;lat;lon;timestamp;pressure;altitude;pressure_sealevel;temperature;humidity
20696;BME280;10507;52.754;13.040;2023-06-10T00:01:52;101374.69;;;13.86;100.00
20696;BME280;10507;52.754;13.040;2023-06-10T00:04:21;101385.56;;;13.83;100.00
20696;BME280;10507;52.754;13.040;2023-06-10T00:06:49;101398.13;;;13.83;100.00
20696;BME280;10507;52.754;13.040;2023-06-10T00:09:17;101403.59;;;13.81;100.00
20696;BME280;10507;52.754;13.040;2023-06-10T00:11:45;101416.13;;;13.81;100.00
20696;BME280;10507;52.754;13.040;2023-06-10T00:14:15;101420.38;;;13.85;100.00
20696;BME280;10507;52.754;13.040;2023-06-10T00:16:43;101424.97;;;13.83;100.00
20696;BME280;10507;52.754;13.040;2023-06-10T00:19:11;101405.72;;;13.75;100.00
20696;BME280;10507;52.754;13.040;2023-06-10T00:21:42;101422.50;;;13.78;100.00
20696;BME280;10507;52.754;13.040;2023-06-10T00:24:11;101426.06;;;13.79;100.00
20696;BME280;10507;52.754;13.040;2023-06-10T00:26:39;101430.66;;;13.77;100.00
20696;BME280;10507;52.754;13.040;2023-06-10T00:29:07;101419.19;;;13.73;100.00
20696;BME280;10507;52.754;13.040;2023-06-10T00:31:37;101421.16;;;13.69;100.00
20696;BME280;10507;52.754;13.040;2023-06-10T00:34:06;101440.13;;;13.66;100.00
20696;BME280;10507;52.754;13.040;2023-06-10T00:36:34;101440.97;;;13.67;100.00
20696;BME280;10507;52.754;13.040;2023-06-10T00:39:03;101450.13;;;13.63;100.00
20696;BME280;10507;52.754;13.040;2023-06-10T00:41:31;101463.63;;;13.61;100.00
20696;BME280;10507;52.754;13.040;2023-06-10T00:44:00;101477.06;;;13.61;100.00
20696;BME280;10507;52.754;13.040;2023-06-10T00:46:28;101477.13;;;13.60;100.00
20696;BME280;10507;52.754;13.040;2023-06-10T00:49:00;101481.69;;;13.58;100.00
20696;BME280;10507;52.754;13.040;2023-06-10T00:51:28;101496.06;;;13.57;100.00
20696;BME280;10507;52.754;13.040;2023-06-10T00:53:56;101493.50;;;13.54;100.00
20696;BME280;10507;52.754;13.040;2023-06-10T00:56:24;101497.28;;;13.49;100.00
20696;BME280;10507;52.754;13.040;2023-06-10T00:58:52;101507.31;;;13.46;100.00
20696;BME280;10507;52.754;13.040;2023-06-10T01:01:20;101507.44;;;13.43;100.00
20696;BME280;10507;52.754;13.040;2023-06-10T01:03:48;101532.38;;;13.45;100.00
20696;BME280;10507;52.754;13.040;2023-06-10T01:06:26;101542.31;;;13.43;100.00
20696;BME280;10507;52.754;13.040;2023-06-10T01:09:02;101542.47;;;13.40;100.00
20696;BME280;10507;52.754;13.040;2023-06-10T01:11:36;101544.34;;;13.38;100.00
20696;BME280;10507;52.754;13.040;2023-06-10T01:14:09;101557.75;;;13.38;100.00
20696;BME280;10507;52.754;13.040;2023-06-10T01:16:37;101563.28;;;13.35;100.00
20696;BME280;10507;52.754;13.040;2023-06-10T01:19:07;101556.16;;;13.34;100.00
20696;BME280;10507;52.754;13.040;2023-06-10T01:21:39;101546.59;;;13.28;100.00
20696;BME280;10507;52.754;13.040;2023-06-10T01:24:08;101566.38;;;13.25;100.00
20696;BME280;10507;52.754;13.040;2023-06-10T01:26:37;101578.00;;;13.24;100.00
20696;BME280;10507;52.754;13.040;2023-06-10T01:29:09;101596.72;;;13.26;100.00
20696;BME280;10507;52.754;13.040;2023-06-10T01:31:42;101617.06;;;13.31;100.00
20696;BME280;10507;52.754;13.040;2023-06-10T01:34:14;101606.59;;;13.25;100.00
20696;BME280;10507;52.754;13.040;2023-06-10T01:36:47;101615.44;;;13.27;100.00
20696;BME280;10507;52.754;13.040;2023-06-10T01:39:17;101620.81;;;13.27;100.00
20696;BME280;10507;52.754;13.040;2023-06-10T01:41:47;101606.72;;;13.22;100.00
20696;BME280;10507;52.754;13.040;2023-06-10T01:44:17;101609.59;;;13.18;100.00
20696;BME280;10507;52.754;13.040;2023-06-10T01:46:45;101635.56;;;13.17;100.00
20696;BME280;10507;52.754;13.040;2023-06-10T01:49:13;101647.34;;;13.13;100.00
20696;BME280;10507;52.754;13.040;2023-06-10T01:51:41;101651.06;;;13.10;100.00
20696;BME280;10507;52.754;13.040;2023-06-10T01:54:10;101667.19;;;13.09;100.00
20696;BME280;10507;52.754;13.040;2023-06-10T01:56:38;101675.13;;;13.12;100.00
20696;BME280;10507;52.754;13.040;2023-06-10T01:59:06;101693.09;;;13.10;100.00
20696;BME280;10507;52.754;13.040;2023-06-10T02:01:34;101690.63;;;13.05;100.00
20696;BME280;10507;52.754;13.040;2023-06-10T02:04:02;101693.50;;;13.01;100.00
20696;BME280;10507;52.754;13.040;2023-06-10T02:06:30;101715.75;;;13.03;100.00
20696;BME280;10507;52.754;13.040;2023-06-10T02:08:57;101711.56;;;12.96;100.00
20696;BME280;10507;52.754;13.040;2023-06-10T02:11:27;101738.25;;;12.99;100.00
20696;BME280;10507;52.754;13.040;2023-06-10T02:13:55;101735.69;;;12.96;100.00
20696;BME280;10507;52.754;13.040;2023-06-10T02:16:23;101757.03;;;12.99;100.00
20696;BME280;10507;52.754;13.040;2023-06-10T02:18:51;101760.63;;;12.98;100.00
20696;BME280;10507;52.754;13.040;2023-06-10T02:21:19;101760.56;;;12.99;100.00
20696;BME280;10507;52.754;13.040;2023-06-10T02:23:47;101768.66;;;12.98;100.00
20696;BME280;10507;52.754;13.040;2023-06-10T02:26:16;101755.41;;;12.95;100.00
20696;BME280;10507;52.754;13.040;2023-06-10T02:28:45;101762.44;;;12.97;100.00
20696;BME280;10507;52.754;13.040;2023-06-10T02:31:13;101773.31;;;12.94;100.00
20696;BME280;10507;52.754;13.040;2023-06-10T02:33:44;101785.75;;;12.95;100.00
20696;BME280;10507;52.754;13.040;2023-06-10T02:36:12;101788.38;;;12.97;100.00
20696;BME280;10507;52.754;13.040;2023-06-10T02:38:42;101786.63;;;12.96;100.00
20696;BME280;10507;52.754;13.040;2023-06-10T02:41:10;101797.34;;;12.96;100.00
20696;BME280;10507;52.754;13.040;2023-06-10T02:43:37;101793.75;;;12.97;100.00
20696;BME280;10507;52.754;13.040;2023-06-10T02:46:07;101799.06;;;12.98;100.00
20696;BME280;10507;52.754;13.040;2023-06-10T02:48:40;101811.50;;;12.99;100.00
20696;BME280;10507;52.754;13.040;2023-06-10T02:51:09;101815.06;;;13.00;100.00
20696;BME280;10507;52.754;13.040;2023-06-10T02:53:37;101807.00;;;13.00;100.00
20696;BME280;10507;52.754;13.040;2023-06-10T02:56:05;101811.47;;;13.01;100.00
20696;BME280;10507;52.754;13.040;2023-06-10T02:58:33;101816.81;;;13.01;100.00
20696;BME280;10507;52.754;13.040;2023-06-10T03:01:00;101815.88;;;13.02;100.00
20696;BME280;10507;52.754;13.040;2023-06-10T03:03:30;101822.03;;;13.04;100.00
20696;BME280;10507;52.754;13.040;2023-06-10T03:05:59;101822.84;;;13.06;100.00
20696;BME280;10507;52.754;13.040;2023-06-10T03:08:28;101823.66;;;13.08;100.00
20696;BME280;10507;52.754;13.040;2023-06-10T03:10:56;101812.94;;;13.08;100.00
20696;BME280;10507;52.754;13.040;2023-06-10T03:13:24;101807.56;;;13.08;100.00
20696;BME280;10507;52.754;13.040;2023-06-10T03:15:51;101812.75;;;13.13;100.00
20696;BME280;10507;52.754;13.040;2023-06-10T03:18:19;101797.53;;;13.13;100.00
20696;BME280;10507;52.754;13.040;2023-06-10T03:20:51;101803.84;;;13.12;100.00
20696;BME280;10507;52.754;13.040;2023-06-10T03:23:19;101808.06;;;13.18;100.00
20696;BME280;10507;52.754;13.040;2023-06-10T03:25:47;101798.94;;;13.22;100.00
20696;BME280;10507;52.754;13.040;2023-06-10T03:28:15;101787.34;;;13.21;100.00
20696;BME280;10507;52.754;13.040;2023-06-10T03:30:43;101782.66;;;13.26;100.00
20696;BME280;10507;52.754;13.040;2023-06-10T03:33:11;101774.59;;;13.26;100.00
20696;BME280;10507;52.754;13.040;2023-06-10T03:35:39;101779.59;;;13.36;100.00
20696;BME280;10507;52.754;13.040;2023-06-10T03:38:08;101757.88;;;13.42;100.00
20696;BME280;10507;52.754;13.040;2023-06-10T03:40:36;101732.56;;;13.47;100.00
20696;BME280;10507;52.754;13.040;2023-06-10T03:43:03;101734.88;;;13.57;100.00
20696;BME280;10507;52.754;13.040;2023-06-10T03:45:32;101708.91;;;13.57;100.00
20696;BME280;10507;52.754;13.040;2023-06-10T03:48:01;101700.47;;;13.65;100.00
20696;BME280;10507;52.754;13.040;2023-06-10T03:50:30;101685.25;;;13.65;100.00
20696;BME280;10507;52.754;13.040;2023-06-10T03:52:58;101680.41;;;13.73;100.00
20696;BME280;10507;52.754;13.040;2023-06-10T03:55:27;101658.66;;;13.80;100.00
20696;BME280;10507;52.754;13.040;2023-06-10T03:57:55;101658.28;;;13.87;100.00
20696;BME280;10507;52.754;13.040;2023-06-10T04:00:23;101621.59;;;13.88;100.00
20696;BME280;10507;52.754;13.040;2023-06-10T04:02:51;101642.75;;;13.94;100.00
20696;BME280;10507;52.754;13.040;2023-06-10T04:05:19;101627.16;;;14.02;100.00
20696;BME280;10507;52.754;13.040;2023-06-10T04:07:49;101616.91;;;14.10;100.00
20696;BME280;10507;52.754;13.040;2023-06-10T04:10:17;101615.41;;;14.22;100.00
20696;BME280;10507;52.754;13.040;2023-06-10T04:12:46;101594.44;;;14.30;100.00
20696;BME280;10507;52.754;13.040;2023-06-10T04:15:14;101577.09;;;14.36;100.00
20696;BME280;10507;52.754;13.040;2023-06-10T04:17:42;101562.56;;;14.40;100.00
20696;BME280;10507;52.754;13.040;2023-06-10T04:20:10;101561.31;;;14.47;100.00
20696;BME280;10507;52.754;13.040;2023-06-10T04:22:38;101552.72;;;14.58;100.00
20696;BME280;10507;52.754;13.040;2023-06-10T04:25:06;101545.28;;;14.63;100.00
20696;BME280;10507;52.754;13.040;2023-06-10T04:27:35;101528.75;;;14.71;100.00
20696;BME280;10507;52.754;13.040;2023-06-10T04:30:05;101521.84;;;14.83;100.00
20696;BME280;10507;52.754;13.040;2023-06-10T04:32:33;101536.06;;;15.02;100.00
20696;BME280;10507;52.754;13.040;2023-06-10T04:35:01;101468.88;;;15.01;100.00
20696;BME280;10507;52.754;13.040;2023-06-10T04:37:29;101513.91;;;15.13;100.00
20696;BME280;10507;52.754;13.040;2023-06-10T04:39:57;101454.75;;;15.13;100.00
20696;BME280;10507;52.754;13.040;2023-06-10T04:42:25;101476.38;;;15.27;100.00
20696;BME280;10507;52.754;13.040;2023-06-10T04:44:53;101480.09;;;15.41;100.00
20696;BME280;10507;52.754;13.040;2023-06-10T04:47:22;101476.34;;;15.59;100.00
20696;BME280;10507;52.754;13.040;2023-06-10T04:49:50;101466.63;;;15.72;100.00
20696;BME280;10507;52.754;13.040;2023-06-10T04:52:19;101522.13;;;16.21;100.00
20696;BME280;10507;52.754;13.040;2023-06-10T04:54:47;101494.38;;;16.78;100.00
20696;BME280;10507;52.754;13.040;2023-06-10T04:57:15;101370.75;;;16.86;99.18
20696;BME280;10507;52.754;13.040;2023-06-10T04:59:43;101282.88;;;16.68;98.36
20696;BME280;10507;52.754;13.040;2023-06-10T05:02:11;101252.97;;;16.58;98.66
20696;BME280;10507;52.754;13.040;2023-06-10T05:04:40;101283.50;;;16.58;98.73
20696;BME280;10507;52.754;13.040;2023-06-10T05:07:08;101299.84;;;16.70;98.94
20696;BME280;10507;52.754;13.040;2023-06-10T05:09:36;101311.47;;;16.70;99.44
20696;BME280;10507;52.754;13.040;2023-06-10T05:12:05;101293.97;;;16.77;98.91
20696;BME280;10507;52.754;13.040;2023-06-10T05:14:33;101308.59;;;16.88;98.83
20696;BME280;10507;52.754;13.040;2023-06-10T05:17:01;101228.78;;;16.71;98.51
20696;BME280;10507;52.754;13.040;2023-06-10T05:19:29;101318.88;;;16.95;98.30
20696;BME280;10507;52.754;13.040;2023-06-10T05:21:58;101316.25;;;17.21;97.28
20696;BME280;10507;52.754;13.040;2023-06-10T05:24:26;101331.91;;;17.56;96.12
20696;BME280;10507;52.754;13.040;2023-06-10T05:26:54;101332.91;;;17.67;95.91
20696;BME280;10507;52.754;13.040;2023-06-10T05:29:22;101200.47;;;17.56;95.00
20696;BME280;10507;52.754;13.040;2023-06-10T05:31:50;101292.31;;;17.82;94.29
20696;BME280;10507;52.754;13.040;2023-06-10T05:34:18;101346.66;;;18.16;93.91
20696;BME280;10507;52.754;13.040;2023-06-10T05:36:46;101421.75;;;19.13;91.53
20696;BME280;10507;52.754;13.040;2023-06-10T05:39:15;101367.38;;;20.22;85.80
20696;BME280;10507;52.754;13.040;2023-06-10T05:41:43;101542.06;;;21.79;82.03
20696;BME280;10507;52.754;13.040;2023-06-10T05:44:11;101370.78;;;22.21;78.97
20696;BME280;10507;52.754;13.040;2023-06-10T05:46:40;101472.50;;;23.43;75.91
20696;BME280;10507;52.754;13.040;2023-06-10T05:49:08;101219.00;;;24.00;71.98
20696;BME280;10507;52.754;13.040;2023-06-10T05:51:35;101259.97;;;24.45;70.67
20696;BME280;10507;52.754;13.040;2023-06-10T05:54:04;101207.59;;;24.42;71.43
20696;BME280;10507;52.754;13.040;2023-06-10T05:56:34;101380.59;;;25.78;67.52
20696;BME280;10507;52.754;13.040;2023-06-10T05:59:02;100745.09;;;24.44;68.23
20696;BME280;10507;52.754;13.040;2023-06-10T06:01:29;100811.25;;;24.73;68.25
20696;BME280;10507;52.754;13.040;2023-06-10T06:03:57;100898.41;;;25.43;66.84
20696;BME280;10507;52.754;13.040;2023-06-10T06:06:26;100684.13;;;25.11;66.59
20696;BME280;10507;52.754;13.040;2023-06-10T06:08:54;101106.56;;;26.49;65.75
20696;BME280;10507;52.754;13.040;2023-06-10T06:11:21;100943.06;;;26.74;63.88
20696;BME280;10507;52.754;13.040;2023-06-10T06:13:51;100654.94;;;26.08;64.99
20696;BME280;10507;52.754;13.040;2023-06-10T06:16:19;100675.31;;;26.37;63.93
20696;BME280;10507;52.754;13.040;2023-06-10T06:18:47;100671.31;;;26.48;64.06
20696;BME280;10507;52.754;13.040;2023-06-10T06:21:15;100518.47;;;25.66;65.98
20696;BME280;10507;52.754;13.040;2023-06-10T06:23:43;100786.47;;;26.63;64.76
20696;BME280;10507;52.754;13.040;2023-06-10T06:26:10;100776.06;;;27.12;62.51
20696;BME280;10507;52.754;13.040;2023-06-10T06:28:39;100498.16;;;26.99;62.47
20696;BME280;10507;52.754;13.040;2023-06-10T06:31:08;100484.91;;;26.34;63.98
20696;BME280;10507;52.754;13.040;2023-06-10T06:33:39;100799.69;;;27.45;63.07
20696;BME280;10507;52.754;13.040;2023-06-10T06:36:08;100636.84;;;27.75;60.93
20696;BME280;10507;52.754;13.040;2023-06-10T06:38:36;100568.44;;;27.74;61.30
20696;BME280;10507;52.754;13.040;2023-06-10T06:41:04;100515.41;;;27.52;60.92
20696;BME280;10507;52.754;13.040;2023-06-10T06:43:33;100491.84;;;27.57;61.10
20696;BME280;10507;52.754;13.040;2023-06-10T06:46:01;100586.88;;;27.95;60.05
20696;BME280;10507;52.754;13.040;2023-06-10T06:48:30;100521.41;;;27.77;60.63
20696;BME280;10507;52.754;13.040;2023-06-10T06:50:58;100581.41;;;27.50;60.66
20696;BME280;10507;52.754;13.040;2023-06-10T06:53:26;100538.66;;;27.86;59.98
20696;BME280;10507;52.754;13.040;2023-06-10T06:55:57;100531.84;;;27.37;61.45
20696;BME280;10507;52.754;13.040;2023-06-10T06:58:25;100615.41;;;27.94;60.32
20696;BME280;10507;52.754;13.040;2023-06-10T07:00:53;100465.03;;;27.38;60.73
20696;BME280;10507;52.754;13.040;2023-06-10T07:03:21;100495.09;;;27.83;59.87
20696;BME280;10507;52.754;13.040;2023-06-10T07:05:52;100517.25;;;27.81;60.64
20696;BME280;10507;52.754;13.040;2023-06-10T07:08:20;100533.28;;;27.63;60.56
20696;BME280;10507;52.754;13.040;2023-06-10T07:10:47;100535.34;;;27.31;61.96
20696;BME280;10507;52.754;13.040;2023-06-10T07:13:16;100644.22;;;28.05;60.53
20696;BME280;10507;52.754;13.040;2023-06-10T07:15:44;100562.66;;;27.84;60.33
20696;BME280;10507;52.754;13.040;2023-06-10T07:18:12;100597.13;;;28.23;59.21
20696;BME280;10507;52.754;13.040;2023-06-10T07:20:40;100597.00;;;27.79;60.29
20696;BME280;10507;52.754;13.040;2023-06-10T07:23:09;100561.69;;;28.06;59.17
20696;BME280;10507;52.754;13.040;2023-06-10T07:25:37;100446.34;;;27.48;59.08
20696;BME280;10507;52.754;13.040;2023-06-10T07:28:05;100594.38;;;28.01;59.81
20696;BME280;10507;52.754;13.040;2023-06-10T07:30:33;100493.72;;;27.12;60.87
20696;BME280;10507;52.754;13.040;2023-06-10T07:33:01;100683.13;;;27.93;60.63
20696;BME280;10507;52.754;13.040;2023-06-10T07:35:29;100622.44;;;27.73;60.17
20696;BME280;10507;52.754;13.040;2023-06-10T07:37:57;100684.94;;;28.67;58.82
20696;BME280;10507;52.754;13.040;2023-06-10T07:40:26;100593.50;;;28.37;58.63
20696;BME280;10507;52.754;13.040;2023-06-10T07:42:55;100660.94;;;28.25;60.34
20696;BME280;10507;52.754;13.040;2023-06-10T07:45:25;100707.34;;;29.07;58.11
20696;BME280;10507;52.754;13.040;2023-06-10T07:47:53;100625.22;;;28.54;59.15
20696;BME280;10507;52.754;13.040;2023-06-10T07:50:21;100579.91;;;28.72;57.90
20696;BME280;10507;52.754;13.040;2023-06-10T07:52:49;100725.91;;;29.48;57.70
20696;BME280;10507;52.754;13.040;2023-06-10T07:55:17;100607.50;;;29.07;58.16
20696;BME280;10507;52.754;13.040;2023-06-10T07:57:46;100598.00;;;28.59;58.36
20696;BME280;10507;52.754;13.040;2023-06-10T08:00:15;100580.66;;;28.23;59.20
20696;BME280;10507;52.754;13.040;2023-06-10T08:02:43;100778.06;;;29.13;59.31
20696;BME280;10507;52.754;13.040;2023-06-10T08:05:11;100864.81;;;30.23;58.29
20696;BME280;10507;52.754;13.040;2023-06-10T08:07:40;100596.38;;;29.43;57.33
20696;BME280;10507;52.754;13.040;2023-06-10T08:10:08;100533.66;;;28.75;57.84
20696;BME280;10507;52.754;13.040;2023-06-10T08:12:36;100629.16;;;28.15;60.28
20696;BME280;10507;52.754;13.040;2023-06-10T08:15:07;100744.44;;;28.96;59.38
20696;BME280;10507;52.754;13.040;2023-06-10T08:17:37;100685.28;;;27.53;61.32
20696;BME280;10507;52.754;13.040;2023-06-10T08:20:06;100670.72;;;27.83;60.66
20696;BME280;10507;52.754;13.040;2023-06-10T08:22:34;100742.47;;;28.09;61.29
20696;BME280;10507;52.754;13.040;2023-06-10T08:25:02;100660.69;;;27.60;60.58
20696;BME280;10507;52.754;13.040;2023-06-10T08:27:30;100682.31;;;27.40;61.70
20696;BME280;10507;52.754;13.040;2023-06-10T08:29:57;100715.19;;;27.17;62.04
20696;BME280;10507;52.754;13.040;2023-06-10T08:32:29;100805.22;;;27.36;63.41
20696;BME280;10507;52.754;13.040;2023-06-10T08:34:57;100760.72;;;27.26;62.84
20696;BME280;10507;52.754;13.040;2023-06-10T08:37:29;100751.22;;;27.75;61.48
20696;BME280;10507;52.754;13.040;2023-06-10T08:39:56;100835.09;;;28.45;60.92
20696;BME280;10507;52.754;13.040;2023-06-10T08:42:28;100692.13;;;28.32;59.14
20696;BME280;10507;52.754;13.040;2023-06-10T08:44:56;100756.59;;;28.21;60.88
20696;BME280;10507;52.754;13.040;2023-06-10T08:47:30;100728.66;;;28.03;61.12
20696;BME280;10507;52.754;13.040;2023-06-10T08:50:02;100813.97;;;28.31;61.25
20696;BME280;10507;52.754;13.040;2023-06-10T08:52:35;100686.19;;;27.98;60.48
20696;BME280;10507;52.754;13.040;2023-06-10T08:55:10;100640.78;;;26.59;62.39
20696;BME280;10507;52.754;13.040;2023-06-10T08:57:40;100761.81;;;26.54;64.24
20696;BME280;10507;52.754;13.040;2023-06-10T09:00:10;100800.84;;;26.57;64.66
20696;BME280;10507;52.754;13.040;2023-06-10T09:02:40;100850.94;;;26.82;64.43
20696;BME280;10507;52.754;13.040;2023-06-10T09:05:09;100757.72;;;27.13;61.77
20696;BME280;10507;52.754;13.040;2023-06-10T09:07:37;100787.13;;;27.27;62.54
20696;BME280;10507;52.754;13.040;2023-06-10T09:10:06;100815.41;;;27.20;63.47
20696;BME280;10507;52.754;13.040;2023-06-10T09:12:35;100827.72;;;27.55;63.22
20696;BME280;10507;52.754;13.040;2023-06-10T09:15:05;100943.22;;;28.14;64.16
20696;BME280;10507;52.754;13.040;2023-06-10T09:17:34;100771.72;;;28.02;61.31
20696;BME280;10507;52.754;13.040;2023-06-10T09:20:07;100754.50;;;27.93;61.27
20696;BME280;10507;52.754;13.040;2023-06-10T09:22:36;100747.22;;;26.70;63.98
20696;BME280;10507;52.754;13.040;2023-06-10T09:25:07;100827.25;;;27.20;63.97
20696;BME280;10507;52.754;13.040;2023-06-10T09:27:44;100885.63;;;28.06;62.95
20696;BME280;10507;52.754;13.040;2023-06-10T09:30:25;100800.44;;;27.76;61.84
20696;BME280;10507;52.754;13.040;2023-06-10T09:32:54;100800.13;;;28.09;61.02
20696;BME280;10507;52.754;13.040;2023-06-10T09:35:25;100826.88;;;28.30;60.54
20696;BME280;10507;52.754;13.040;2023-06-10T09:37:56;100849.28;;;28.34;61.82
20696;BME280;10507;52.754;13.040;2023-06-10T09:40:24;100772.34;;;27.74;61.73
20696;BME280;10507;52.754;13.040;2023-06-10T09:42:53;100845.94;;;28.09;62.45
20696;BME280;10507;52.754;13.040;2023-06-10T09:45:23;100834.88;;;28.02;62.59
20696;BME280;10507;52.754;13.040;2023-06-10T09:47:51;100721.31;;;27.65;60.99
20696;BME280;10507;52.754;13.040;2023-06-10T09:50:20;100733.50;;;27.48;61.00
20696;BME280;10507;52.754;13.040;2023-06-10T09:52:50;100703.88;;;27.20;61.19
20696;BME280;10507;52.754;13.040;2023-06-10T09:55:18;100769.44;;;27.07;62.68
20696;BME280;10507;52.754;13.040;2023-06-10T09:57:49;100753.75;;;26.92;62.25
20696;BME280;10507;52.754;13.040;2023-06-10T10:00:17;100744.72;;;26.84;62.88
20696;BME280;10507;52.754;13.040;2023-06-10T10:02:47;100738.97;;;26.39;63.37
20696;BME280;10507;52.754;13.040;2023-06-10T10:05:17;100782.44;;;26.34;63.63
20696;BME280;10507;52.754;13.040;2023-06-10T10:07:45;100794.13;;;26.11;65.09
20696;BME280;10507;52.754;13.040;2023-06-10T10:10:16;100776.75;;;25.88;65.49
20696;BME280;10507;52.754;13.040;2023-06-10T10:12:46;100816.22;;;25.85;65.95
20696;BME280;10507;52.754;13.040;2023-06-10T10:15:16;100807.50;;;25.57;66.45
20696;BME280;10507;52.754;13.040;2023-06-10T10:17:49;100806.28;;;25.19;67.87
20696;BME280;10507;52.754;13.040;2023-06-10T10:20:22;100847.13;;;24.78;68.88
20696;BME280;10507;52.754;13.040;2023-06-10T10:22:55;100856.25;;;24.60;69.51
20696;BME280;10507;52.754;13.040;2023-06-10T10:25:29;100866.47;;;24.32;70.10
20696;BME280;10507;52.754;13.040;2023-06-10T10:28:02;100859.03;;;24.16;70.01
20696;BME280;10507;52.754;13.040;2023-06-10T10:30:38;100834.72;;;23.79;70.34
20696;BME280;10507;52.754;13.040;2023-06-10T10:33:12;100910.63;;;23.83;71.52
20696;BME280;10507;52.754;13.040;2023-06-10T10:35:41;100907.72;;;23.85;70.98
20696;BME280;10507;52.754;13.040;2023-06-10T10:38:09;100892.81;;;23.61;71.18
20696;BME280;10507;52.754;13.040;2023-06-10T10:40:39;100914.16;;;23.66;71.18
20696;BME280;10507;52.754;13.040;2023-06-10T10:43:08;100866.41;;;23.26;71.34
20696;BME280;10507;52.754;13.040;2023-06-10T10:45:37;100905.50;;;23.35;71.17
20696;BME280;10507;52.754;13.040;2023-06-10T10:48:07;100898.16;;;23.17;71.51
20696;BME280;10507;52.754;13.040;2023-06-10T10:50:38;100929.53;;;23.21;71.62
20696;BME280;10507;52.754;13.040;2023-06-10T10:53:07;100917.28;;;23.08;71.83
20696;BME280;10507;52.754;13.040;2023-06-10T10:55:35;100949.91;;;23.17;71.93
20696;BME280;10507;52.754;13.040;2023-06-10T10:58:06;100945.03;;;23.21;71.53
20696;BME280;10507;52.754;13.040;2023-06-10T11:00:36;100961.88;;;23.34;71.63
20696;BME280;10507;52.754;13.040;2023-06-10T11:03:06;100945.56;;;23.24;71.43
20696;BME280;10507;52.754;13.040;2023-06-10T11:05:39;100941.63;;;23.09;71.77
20696;BME280;10507;52.754;13.040;2023-06-10T11:08:08;100984.72;;;23.23;72.50
20696;BME280;10507;52.754;13.040;2023-06-10T11:10:37;100980.38;;;23.31;72.04
20696;BME280;10507;52.754;13.040;2023-06-10T11:13:08;100914.44;;;22.99;71.93
20696;BME280;10507;52.754;13.040;2023-06-10T11:15:43;100955.25;;;23.09;72.65
20696;BME280;10507;52.754;13.040;2023-06-10T11:18:19;100957.16;;;23.27;71.69
20696;BME280;10507;52.754;13.040;2023-06-10T11:20:56;100985.63;;;23.42;71.91
20696;BME280;10507;52.754;13.040;2023-06-10T11:23:44;100945.34;;;23.36;71.63
20696;BME280;10507;52.754;13.040;2023-06-10T11:26:14;100971.19;;;23.59;70.97
20696;BME280;10507;52.754;13.040;2023-06-10T11:29:03;100949.50;;;23.58;71.08
20696;BME280;10507;52.754;13.040;2023-06-10T11:31:32;100921.63;;;23.46;70.97
20696;BME280;10507;52.754;13.040;2023-06-10T11:34:02;100976.06;;;23.56;72.14
20696;BME280;10507;52.754;13.040;2023-06-10T11:36:32;100923.09;;;23.58;70.30
20696;BME280;10507;52.754;13.040;2023-06-10T11:39:03;100910.81;;;23.54;70.72
20696;BME280;10507;52.754;13.040;2023-06-10T11:41:32;100913.69;;;23.53;70.81
20696;BME280;10507;52.754;13.040;2023-06-10T11:44:03;100916.56;;;23.69;70.59
20696;BME280;10507;52.754;13.040;2023-06-10T11:46:31;100886.28;;;23.54;70.35
20696;BME280;10507;52.754;13.040;2023-06-10T11:48:59;100914.00;;;23.67;70.50
20696;BME280;10507;52.754;13.040;2023-06-10T11:51:35;100927.88;;;23.92;70.45
20696;BME280;10507;52.754;13.040;2023-06-10T11:54:04;100912.69;;;23.90;70.18
20696;BME280;10507;52.754;13.040;2023-06-10T11:56:32;100957.03;;;24.10;71.09
20696;BME280;10507;52.754;13.040;2023-06-10T11:59:03;100962.78;;;24.24;70.18
20696;BME280;10507;52.754;13.040;2023-06-10T12:01:33;100896.97;;;24.27;69.84
20696;BME280;10507;52.754;13.040;2023-06-10T12:04:03;100924.09;;;24.29;70.16
20696;BME280;10507;52.754;13.040;2023-06-10T12:06:39;100926.50;;;24.32;70.13
20696;BME280;10507;52.754;13.040;2023-06-10T12:09:13;100967.88;;;24.63;70.07
20696;BME280;10507;52.754;13.040;2023-06-10T12:11:58;100914.50;;;24.69;68.73
20696;BME280;10507;52.754;13.040;2023-06-10T12:14:53;100918.22;;;24.68;68.52
20696;BME280;10507;52.754;13.040;2023-06-10T12:17:23;100889.31;;;24.83;67.36
20696;BME280;10507;52.754;13.040;2023-06-10T12:20:05;100871.53;;;24.79;67.86
20696;BME280;10507;52.754;13.040;2023-06-10T12:22:37;100886.28;;;24.95;66.99
20696;BME280;10507;52.754;13.040;2023-06-10T12:25:06;100911.09;;;25.18;67.26
20696;BME280;10507;52.754;13.040;2023-06-10T12:27:36;100838.00;;;25.12;66.73
20696;BME280;10507;52.754;13.040;2023-06-10T12:30:06;100823.16;;;25.14;66.32
20696;BME280;10507;52.754;13.040;2023-06-10T12:32:35;100847.78;;;25.22;67.06
20696;BME280;10507;52.754;13.040;2023-06-10T12:35:04;100832.41;;;25.21;66.28
20696;BME280;10507;52.754;13.040;2023-06-10T12:37:33;100869.69;;;25.30;67.59
20696;BME280;10507;52.754;13.040;2023-06-10T12:40:08;100863.19;;;25.23;67.66
20696;BME280;10507;52.754;13.040;2023-06-10T12:42:37;100802.66;;;25.10;66.83
20696;BME280;10507;52.754;13.040;2023-06-10T12:45:07;100822.81;;;25.17;66.55
20696;BME280;10507;52.754;13.040;2023-06-10T12:47:37;100847.41;;;25.17;68.00